sensor_id;sensor_type;location;lat;lon;timestamp;P1;durP1;ratioP1;P2;durP2;ratioP2
6033;SDS011;3045;43.226;27.858;2023-02-05T00:00:28;5.13;;;4.93;;
6033;SDS011;3045;43.226;27.858;2023-02-05T00:02:55;5.57;;;5.27;;
6033;SDS011;3045;43.226;27.858;2023-02-05T00:05:22;5.33;;;4.93;;
6033;SDS011;3045;43.226;27.858;2023-02-05T00:07:49;5.70;;;5.40;;
6033;SDS011;3045;43.226;27.858;2023-02-05T00:10:16;5.90;;;5.60;;
6033;SDS011;3045;43.226;27.858;2023-02-05T00:12:43;6.47;;;6.17;;
6033;SDS011;3045;43.226;27.858;2023-02-05T00:15:10;6.47;;;6.07;;
6033;SDS011;3045;43.226;27.858;2023-02-05T00:17:38;5.97;;;5.57;;
6033;SDS011;3045;43.226;27.858;2023-02-05T00:20:05;6.57;;;6.10;;
6033;SDS011;3045;43.226;27.858;2023-02-05T00:22:33;6.60;;;6.30;;
6033;SDS011;3045;43.226;27.858;2023-02-05T00:25:00;6.13;;;5.67;;
6033;SDS011;3045;43.226;27.858;2023-02-05T00:27:27;6.60;;;6.30;;
6033;SDS011;3045;43.226;27.858;2023-02-05T00:29:54;5.63;;;5.33;;
6033;SDS011;3045;43.226;27.858;2023-02-05T00:32:20;6.40;;;6.03;;
6033;SDS011;3045;43.226;27.858;2023-02-05T00:34:49;6.33;;;6.03;;
6033;SDS011;3045;43.226;27.858;2023-02-05T00:37:16;7.10;;;6.70;;
6033;SDS011;3045;43.226;27.858;2023-02-05T00:39:43;6.10;;;5.80;;
6033;SDS011;3045;43.226;27.858;2023-02-05T00:42:10;6.73;;;6.30;;
6033;SDS011;3045;43.226;27.858;2023-02-05T00:44:36;6.53;;;5.93;;
6033;SDS011;3045;43.226;27.858;2023-02-05T00:47:03;7.00;;;6.50;;
6033;SDS011;3045;43.226;27.858;2023-02-05T00:49:30;6.43;;;5.87;;
6033;SDS011;3045;43.226;27.858;2023-02-05T00:51:58;6.20;;;5.80;;
6033;SDS011;3045;43.226;27.858;2023-02-05T00:54:25;5.93;;;5.63;;
6033;SDS011;3045;43.226;27.858;2023-02-05T00:56:52;6.50;;;6.10;;
6033;SDS011;3045;43.226;27.858;2023-02-05T00:59:19;6.90;;;6.57;;
6033;SDS011;3045;43.226;27.858;2023-02-05T01:01:46;5.67;;;5.43;;
6033;SDS011;3045;43.226;27.858;2023-02-05T01:04:13;7.33;;;6.83;;
6033;SDS011;3045;43.226;27.858;2023-02-05T01:06:39;9.03;;;6.93;;
6033;SDS011;3045;43.226;27.858;2023-02-05T01:09:08;6.63;;;6.13;;
6033;SDS011;3045;43.226;27.858;2023-02-05T01:11:34;7.20;;;6.80;;
6033;SDS011;3045;43.226;27.858;2023-02-05T01:14:01;6.20;;;5.80;;
6033;SDS011;3045;43.226;27.858;2023-02-05T01:16:28;7.80;;;7.30;;
6033;SDS011;3045;43.226;27.858;2023-02-05T01:18:55;7.47;;;7.00;;
6033;SDS011;3045;43.226;27.858;2023-02-05T01:21:23;6.73;;;6.27;;
6033;SDS011;3045;43.226;27.858;2023-02-05T01:23:50;7.87;;;7.27;;
6033;SDS011;3045;43.226;27.858;2023-02-05T01:26:19;7.17;;;6.77;;
6033;SDS011;3045;43.226;27.858;2023-02-05T01:28:47;7.17;;;6.57;;
6033;SDS011;3045;43.226;27.858;2023-02-05T01:31:14;8.83;;;6.97;;
6033;SDS011;3045;43.226;27.858;2023-02-05T01:33:41;8.53;;;7.83;;
6033;SDS011;3045;43.226;27.858;2023-02-05T01:36:08;7.73;;;7.27;;
6033;SDS011;3045;43.226;27.858;2023-02-05T01:38:35;7.17;;;6.67;;
6033;SDS011;3045;43.226;27.858;2023-02-05T01:41:02;6.83;;;6.33;;
6033;SDS011;3045;43.226;27.858;2023-02-05T01:43:32;8.37;;;7.50;;
6033;SDS011;3045;43.226;27.858;2023-02-05T01:46:02;7.33;;;6.83;;
6033;SDS011;3045;43.226;27.858;2023-02-05T01:48:37;7.73;;;7.27;;
6033;SDS011;3045;43.226;27.858;2023-02-05T01:51:10;6.43;;;6.03;;
6033;SDS011;3045;43.226;27.858;2023-02-05T01:53:41;7.60;;;7.20;;
6033;SDS011;3045;43.226;27.858;2023-02-05T01:56:09;7.67;;;7.27;;
6033;SDS011;3045;43.226;27.858;2023-02-05T01:58:41;7.93;;;7.43;;
6033;SDS011;3045;43.226;27.858;2023-02-05T02:01:12;8.03;;;7.53;;
6033;SDS011;3045;43.226;27.858;2023-02-05T02:03:39;7.97;;;7.47;;
6033;SDS011;3045;43.226;27.858;2023-02-05T02:06:06;9.03;;;8.17;;
6033;SDS011;3045;43.226;27.858;2023-02-05T02:08:33;6.80;;;6.40;;
6033;SDS011;3045;43.226;27.858;2023-02-05T02:11:00;7.97;;;7.47;;
6033;SDS011;3045;43.226;27.858;2023-02-05T02:13:31;8.73;;;8.20;;
6033;SDS011;3045;43.226;27.858;2023-02-05T02:16:02;7.77;;;7.27;;
6033;SDS011;3045;43.226;27.858;2023-02-05T02:18:30;6.90;;;6.10;;
6033;SDS011;3045;43.226;27.858;2023-02-05T02:24:21;6.43;;;6.03;;
6033;SDS011;3045;43.226;27.858;2023-02-05T02:27:04;6.23;;;5.80;;
6033;SDS011;3045;43.226;27.858;2023-02-05T02:29:46;7.17;;;6.67;;
6033;SDS011;3045;43.226;27.858;2023-02-05T02:32:17;6.10;;;5.70;;
6033;SDS011;3045;43.226;27.858;2023-02-05T02:34:49;7.33;;;6.83;;
6033;SDS011;3045;43.226;27.858;2023-02-05T02:37:21;6.17;;;5.77;;
6033;SDS011;3045;43.226;27.858;2023-02-05T02:39:54;8.13;;;7.53;;
6033;SDS011;3045;43.226;27.858;2023-02-05T02:42:26;6.63;;;6.13;;
6033;SDS011;3045;43.226;27.858;2023-02-05T02:44:59;7.17;;;6.77;;
6033;SDS011;3045;43.226;27.858;2023-02-05T02:47:28;6.97;;;6.47;;
6033;SDS011;3045;43.226;27.858;2023-02-05T02:49:59;7.57;;;6.90;;
6033;SDS011;3045;43.226;27.858;2023-02-05T02:52:28;6.40;;;5.83;;
6033;SDS011;3045;43.226;27.858;2023-02-05T02:54:59;7.20;;;6.73;;
6033;SDS011;3045;43.226;27.858;2023-02-05T02:57:32;7.33;;;6.80;;
6033;SDS011;3045;43.226;27.858;2023-02-05T03:00:05;6.67;;;6.37;;
6033;SDS011;3045;43.226;27.858;2023-02-05T03:02:36;6.47;;;5.97;;
6033;SDS011;3045;43.226;27.858;2023-02-05T03:05:05;8.50;;;6.30;;
6033;SDS011;3045;43.226;27.858;2023-02-05T03:07:37;6.53;;;6.13;;
6033;SDS011;3045;43.226;27.858;2023-02-05T03:10:08;8.57;;;6.30;;
6033;SDS011;3045;43.226;27.858;2023-02-05T03:12:39;7.63;;;7.13;;
6033;SDS011;3045;43.226;27.858;2023-02-05T03:15:08;6.77;;;6.20;;
6033;SDS011;3045;43.226;27.858;2023-02-05T03:17:36;6.30;;;5.83;;
6033;SDS011;3045;43.226;27.858;2023-02-05T03:20:07;6.70;;;6.23;;
6033;SDS011;3045;43.226;27.858;2023-02-05T03:22:38;6.27;;;5.83;;
6033;SDS011;3045;43.226;27.858;2023-02-05T03:25:05;4.70;;;4.40;;
6033;SDS011;3045;43.226;27.858;2023-02-05T03:27:33;6.43;;;6.03;;
6033;SDS011;3045;43.226;27.858;2023-02-05T03:30:01;6.10;;;5.80;;
6033;SDS011;3045;43.226;27.858;2023-02-05T03:32:38;6.30;;;6.00;;
6033;SDS011;3045;43.226;27.858;2023-02-05T03:35:18;5.50;;;5.20;;
6033;SDS011;3045;43.226;27.858;2023-02-05T03:37:57;6.50;;;6.00;;
6033;SDS011;3045;43.226;27.858;2023-02-05T03:40:37;6.50;;;6.10;;
6033;SDS011;3045;43.226;27.858;2023-02-05T03:43:11;5.47;;;5.17;;
6033;SDS011;3045;43.226;27.858;2023-02-05T03:45:50;6.73;;;6.23;;
6033;SDS011;3045;43.226;27.858;2023-02-05T03:48:32;5.53;;;5.23;;
6033;SDS011;3045;43.226;27.858;2023-02-05T03:51:09;6.10;;;5.73;;
6033;SDS011;3045;43.226;27.858;2023-02-05T03:53:48;5.47;;;5.17;;
6033;SDS011;3045;43.226;27.858;2023-02-05T03:56:26;5.43;;;5.13;;
6033;SDS011;3045;43.226;27.858;2023-02-05T03:58:57;5.80;;;5.50;;
6033;SDS011;3045;43.226;27.858;2023-02-05T04:01:26;5.40;;;5.00;;
6033;SDS011;3045;43.226;27.858;2023-02-05T04:03:55;5.43;;;5.23;;
6033;SDS011;3045;43.226;27.858;2023-02-05T04:06:22;6.17;;;5.87;;
6033;SDS011;3045;43.226;27.858;2023-02-05T04:08:49;6.30;;;5.80;;
6033;SDS011;3045;43.226;27.858;2023-02-05T04:11:16;4.83;;;4.47;;
6033;SDS011;3045;43.226;27.858;2023-02-05T04:13:43;6.10;;;5.77;;
6033;SDS011;3045;43.226;27.858;2023-02-05T04:16:10;6.07;;;5.77;;
6033;SDS011;3045;43.226;27.858;2023-02-05T04:18:36;6.07;;;5.70;;
6033;SDS011;3045;43.226;27.858;2023-02-05T04:21:05;6.13;;;5.73;;
6033;SDS011;3045;43.226;27.858;2023-02-05T04:23:32;5.97;;;5.67;;
6033;SDS011;3045;43.226;27.858;2023-02-05T04:25:58;7.57;;;6.90;;
6033;SDS011;3045;43.226;27.858;2023-02-05T04:28:25;6.17;;;5.70;;
6033;SDS011;3045;43.226;27.858;2023-02-05T04:30:52;7.20;;;6.73;;
6033;SDS011;3045;43.226;27.858;2023-02-05T04:33:19;6.63;;;6.30;;
6033;SDS011;3045;43.226;27.858;2023-02-05T04:35:46;6.40;;;5.90;;
6033;SDS011;3045;43.226;27.858;2023-02-05T04:38:14;6.90;;;6.50;;
6033;SDS011;3045;43.226;27.858;2023-02-05T04:40:41;6.33;;;5.90;;
6033;SDS011;3045;43.226;27.858;2023-02-05T04:43:08;6.17;;;5.87;;
6033;SDS011;3045;43.226;27.858;2023-02-05T04:45:34;6.93;;;6.60;;
6033;SDS011;3045;43.226;27.858;2023-02-05T04:48:01;5.47;;;5.17;;
6033;SDS011;3045;43.226;27.858;2023-02-05T04:50:30;6.97;;;6.40;;
6033;SDS011;3045;43.226;27.858;2023-02-05T04:52:57;6.23;;;5.83;;
6033;SDS011;3045;43.226;27.858;2023-02-05T04:55:27;6.00;;;5.53;;
6033;SDS011;3045;43.226;27.858;2023-02-05T04:57:54;6.60;;;6.03;;
6033;SDS011;3045;43.226;27.858;2023-02-05T05:00:21;6.43;;;5.50;;
6033;SDS011;3045;43.226;27.858;2023-02-05T05:02:48;5.10;;;4.80;;
6033;SDS011;3045;43.226;27.858;2023-02-05T05:05:15;5.37;;;5.17;;
6033;SDS011;3045;43.226;27.858;2023-02-05T05:07:42;6.67;;;6.03;;
6033;SDS011;3045;43.226;27.858;2023-02-05T05:10:11;5.37;;;5.17;;
6033;SDS011;3045;43.226;27.858;2023-02-05T05:12:39;6.10;;;5.70;;
6033;SDS011;3045;43.226;27.858;2023-02-05T05:15:06;5.47;;;5.03;;
6033;SDS011;3045;43.226;27.858;2023-02-05T05:17:34;6.00;;;5.40;;
6033;SDS011;3045;43.226;27.858;2023-02-05T05:20:01;6.47;;;6.03;;
6033;SDS011;3045;43.226;27.858;2023-02-05T05:22:28;6.67;;;6.17;;
6033;SDS011;3045;43.226;27.858;2023-02-05T05:24:55;6.53;;;6.13;;
6033;SDS011;3045;43.226;27.858;2023-02-05T05:27:22;5.87;;;5.57;;
6033;SDS011;3045;43.226;27.858;2023-02-05T05:29:50;6.67;;;6.27;;
6033;SDS011;3045;43.226;27.858;2023-02-05T05:32:17;5.90;;;5.60;;
6033;SDS011;3045;43.226;27.858;2023-02-05T05:34:44;5.97;;;5.60;;
6033;SDS011;3045;43.226;27.858;2023-02-05T05:37:11;6.00;;;5.70;;
6033;SDS011;3045;43.226;27.858;2023-02-05T05:39:38;5.80;;;5.40;;
6033;SDS011;3045;43.226;27.858;2023-02-05T05:42:22;6.10;;;5.73;;
6033;SDS011;3045;43.226;27.858;2023-02-05T05:45:08;5.30;;;4.87;;
6033;SDS011;3045;43.226;27.858;2023-02-05T05:47:35;5.20;;;4.90;;
6033;SDS011;3045;43.226;27.858;2023-02-05T05:50:02;4.97;;;4.77;;
6033;SDS011;3045;43.226;27.858;2023-02-05T05:52:29;5.00;;;4.70;;
6033;SDS011;3045;43.226;27.858;2023-02-05T05:54:56;4.20;;;4.00;;
6033;SDS011;3045;43.226;27.858;2023-02-05T05:57:23;5.40;;;5.13;;
6033;SDS011;3045;43.226;27.858;2023-02-05T05:59:50;4.20;;;4.00;;
6033;SDS011;3045;43.226;27.858;2023-02-05T06:02:18;5.87;;;5.47;;
6033;SDS011;3045;43.226;27.858;2023-02-05T06:04:45;5.13;;;4.83;;
6033;SDS011;3045;43.226;27.858;2023-02-05T06:07:12;5.00;;;4.70;;
6033;SDS011;3045;43.226;27.858;2023-02-05T06:09:39;5.57;;;5.07;;
6033;SDS011;3045;43.226;27.858;2023-02-05T06:12:06;5.10;;;4.80;;
6033;SDS011;3045;43.226;27.858;2023-02-05T06:14:33;3.77;;;3.57;;
6033;SDS011;3045;43.226;27.858;2023-02-05T06:17:00;4.93;;;4.63;;
6033;SDS011;3045;43.226;27.858;2023-02-05T06:19:28;4.20;;;4.00;;
6033;SDS011;3045;43.226;27.858;2023-02-05T06:21:55;5.43;;;5.03;;
6033;SDS011;3045;43.226;27.858;2023-02-05T06:24:22;5.50;;;5.10;;
6033;SDS011;3045;43.226;27.858;2023-02-05T06:26:49;5.17;;;4.87;;
6033;SDS011;3045;43.226;27.858;2023-02-05T06:29:16;5.40;;;5.10;;
6033;SDS011;3045;43.226;27.858;2023-02-05T06:31:42;5.23;;;5.03;;
6033;SDS011;3045;43.226;27.858;2023-02-05T06:34:09;5.90;;;5.60;;
6033;SDS011;3045;43.226;27.858;2023-02-05T06:36:37;6.33;;;5.93;;
6033;SDS011;3045;43.226;27.858;2023-02-05T06:39:04;5.97;;;5.57;;
6033;SDS011;3045;43.226;27.858;2023-02-05T06:41:31;5.17;;;4.87;;
6033;SDS011;3045;43.226;27.858;2023-02-05T06:43:58;5.30;;;5.00;;
6033;SDS011;3045;43.226;27.858;2023-02-05T06:46:25;4.83;;;4.43;;
6033;SDS011;3045;43.226;27.858;2023-02-05T06:48:52;5.23;;;4.93;;
6033;SDS011;3045;43.226;27.858;2023-02-05T06:51:19;5.20;;;4.80;;
6033;SDS011;3045;43.226;27.858;2023-02-05T06:53:47;4.33;;;4.13;;
6033;SDS011;3045;43.226;27.858;2023-02-05T06:56:14;4.70;;;4.40;;
6033;SDS011;3045;43.226;27.858;2023-02-05T06:58:41;4.17;;;3.97;;
6033;SDS011;3045;43.226;27.858;2023-02-05T07:01:07;4.50;;;4.10;;
6033;SDS011;3045;43.226;27.858;2023-02-05T07:03:34;3.10;;;3.00;;
6033;SDS011;3045;43.226;27.858;2023-02-05T07:06:02;4.07;;;3.87;;
6033;SDS011;3045;43.226;27.858;2023-02-05T07:08:29;4.00;;;3.80;;
6033;SDS011;3045;43.226;27.858;2023-02-05T07:10:57;4.60;;;4.40;;
6033;SDS011;3045;43.226;27.858;2023-02-05T07:13:24;4.20;;;4.00;;
6033;SDS011;3045;43.226;27.858;2023-02-05T07:15:51;3.60;;;3.40;;
6033;SDS011;3045;43.226;27.858;2023-02-05T07:18:18;3.73;;;3.53;;
6033;SDS011;3045;43.226;27.858;2023-02-05T07:20:45;4.30;;;3.90;;
6033;SDS011;3045;43.226;27.858;2023-02-05T07:23:12;3.17;;;2.97;;
6033;SDS011;3045;43.226;27.858;2023-02-05T07:25:39;3.60;;;3.40;;
6033;SDS011;3045;43.226;27.858;2023-02-05T07:28:07;3.63;;;3.43;;
6033;SDS011;3045;43.226;27.858;2023-02-05T07:30:34;5.27;;;3.43;;
6033;SDS011;3045;43.226;27.858;2023-02-05T07:33:01;3.90;;;3.57;;
6033;SDS011;3045;43.226;27.858;2023-02-05T07:35:29;4.10;;;3.80;;
6033;SDS011;3045;43.226;27.858;2023-02-05T07:37:56;3.87;;;3.50;;
6033;SDS011;3045;43.226;27.858;2023-02-05T07:40:23;3.70;;;3.50;;
6033;SDS011;3045;43.226;27.858;2023-02-05T07:42:50;3.00;;;2.80;;
6033;SDS011;3045;43.226;27.858;2023-02-05T07:45:18;3.23;;;3.03;;
6033;SDS011;3045;43.226;27.858;2023-02-05T07:47:45;5.47;;;3.77;;
6033;SDS011;3045;43.226;27.858;2023-02-05T07:50:14;3.17;;;2.97;;
6033;SDS011;3045;43.226;27.858;2023-02-05T07:52:41;3.47;;;3.27;;
6033;SDS011;3045;43.226;27.858;2023-02-05T07:55:08;3.10;;;2.93;;
6033;SDS011;3045;43.226;27.858;2023-02-05T07:57:35;2.97;;;2.77;;
6033;SDS011;3045;43.226;27.858;2023-02-05T08:00:02;3.13;;;2.93;;
6033;SDS011;3045;43.226;27.858;2023-02-05T08:02:31;3.40;;;3.20;;
6033;SDS011;3045;43.226;27.858;2023-02-05T08:04:57;3.63;;;3.43;;
6033;SDS011;3045;43.226;27.858;2023-02-05T08:07:24;3.53;;;3.33;;
6033;SDS011;3045;43.226;27.858;2023-02-05T08:09:51;3.30;;;3.10;;
6033;SDS011;3045;43.226;27.858;2023-02-05T08:12:18;3.63;;;3.30;;
6033;SDS011;3045;43.226;27.858;2023-02-05T08:14:45;2.70;;;2.60;;
6033;SDS011;3045;43.226;27.858;2023-02-05T08:17:12;3.20;;;3.00;;
6033;SDS011;3045;43.226;27.858;2023-02-05T08:19:40;3.33;;;3.13;;
6033;SDS011;3045;43.226;27.858;2023-02-05T08:22:07;3.50;;;3.30;;
6033;SDS011;3045;43.226;27.858;2023-02-05T08:24:34;3.57;;;3.30;;
6033;SDS011;3045;43.226;27.858;2023-02-05T08:27:01;3.50;;;3.30;;
6033;SDS011;3045;43.226;27.858;2023-02-05T08:29:27;3.17;;;3.03;;
6033;SDS011;3045;43.226;27.858;2023-02-05T08:31:54;2.70;;;2.60;;
6033;SDS011;3045;43.226;27.858;2023-02-05T08:34:21;3.27;;;3.07;;
6033;SDS011;3045;43.226;27.858;2023-02-05T08:36:50;6.57;;;2.80;;
6033;SDS011;3045;43.226;27.858;2023-02-05T08:39:16;4.03;;;3.40;;
6033;SDS011;3045;43.226;27.858;2023-02-05T08:41:43;2.90;;;2.70;;
6033;SDS011;3045;43.226;27.858;2023-02-05T08:44:10;3.00;;;2.77;;
6033;SDS011;3045;43.226;27.858;2023-02-05T08:46:38;4.53;;;3.13;;
6033;SDS011;3045;43.226;27.858;2023-02-05T08:49:05;2.60;;;2.50;;
6033;SDS011;3045;43.226;27.858;2023-02-05T08:51:32;3.60;;;2.30;;
6033;SDS011;3045;43.226;27.858;2023-02-05T08:54:01;2.60;;;2.50;;
6033;SDS011;3045;43.226;27.858;2023-02-05T08:56:29;3.07;;;2.80;;
6033;SDS011;3045;43.226;27.858;2023-02-05T08:58:57;2.30;;;2.20;;
6033;SDS011;3045;43.226;27.858;2023-02-05T09:01:23;2.40;;;2.30;;
6033;SDS011;3045;43.226;27.858;2023-02-05T09:03:51;2.70;;;2.60;;
6033;SDS011;3045;43.226;27.858;2023-02-05T09:06:18;2.43;;;2.30;;
6033;SDS011;3045;43.226;27.858;2023-02-05T09:08:45;2.87;;;2.57;;
6033;SDS011;3045;43.226;27.858;2023-02-05T09:11:13;2.30;;;2.20;;
6033;SDS011;3045;43.226;27.858;2023-02-05T09:13:46;4.30;;;2.73;;
6033;SDS011;3045;43.226;27.858;2023-02-05T09:16:13;2.73;;;2.60;;
6033;SDS011;3045;43.226;27.858;2023-02-05T09:18:40;2.60;;;2.50;;
6033;SDS011;3045;43.226;27.858;2023-02-05T09:21:07;5.17;;;3.30;;
6033;SDS011;3045;43.226;27.858;2023-02-05T09:23:35;2.33;;;2.13;;
6033;SDS011;3045;43.226;27.858;2023-02-05T09:26:03;3.20;;;2.90;;
6033;SDS011;3045;43.226;27.858;2023-02-05T09:28:32;2.57;;;2.47;;
6033;SDS011;3045;43.226;27.858;2023-02-05T09:31:02;3.27;;;3.07;;
6033;SDS011;3045;43.226;27.858;2023-02-05T09:33:32;2.87;;;2.67;;
6033;SDS011;3045;43.226;27.858;2023-02-05T09:36:03;2.80;;;2.70;;
6033;SDS011;3045;43.226;27.858;2023-02-05T09:38:30;2.10;;;2.00;;
6033;SDS011;3045;43.226;27.858;2023-02-05T09:40:58;2.50;;;2.40;;
6033;SDS011;3045;43.226;27.858;2023-02-05T09:43:31;2.67;;;2.47;;
6033;SDS011;3045;43.226;27.858;2023-02-05T09:46:10;2.73;;;2.63;;
6033;SDS011;3045;43.226;27.858;2023-02-05T09:48:46;2.30;;;2.20;;
6033;SDS011;3045;43.226;27.858;2023-02-05T09:51:19;2.47;;;2.20;;
6033;SDS011;3045;43.226;27.858;2023-02-05T09:53:50;2.37;;;2.27;;
6033;SDS011;3045;43.226;27.858;2023-02-05T09:56:21;2.20;;;2.10;;
6033;SDS011;3045;43.226;27.858;2023-02-05T09:58:51;2.17;;;2.07;;
6033;SDS011;3045;43.226;27.858;2023-02-05T10:01:21;3.47;;;3.17;;
6033;SDS011;3045;43.226;27.858;2023-02-05T10:03:56;3.17;;;2.87;;
6033;SDS011;3045;43.226;27.858;2023-02-05T10:06:33;8.47;;;7.60;;
6033;SDS011;3045;43.226;27.858;2023-02-05T10:09:11;5.80;;;5.33;;
6033;SDS011;3045;43.226;27.858;2023-02-05T10:11:48;2.80;;;2.70;;
6033;SDS011;3045;43.226;27.858;2023-02-05T10:14:27;3.97;;;2.10;;
6033;SDS011;3045;43.226;27.858;2023-02-05T10:17:08;3.20;;;3.00;;
6033;SDS011;3045;43.226;27.858;2023-02-05T10:22:43;5.77;;;5.47;;
6033;SDS011;3045;43.226;27.858;2023-02-05T10:25:28;3.97;;;3.70;;
6033;SDS011;3045;43.226;27.858;2023-02-05T10:28:13;8.07;;;7.37;;
6033;SDS011;3045;43.226;27.858;2023-02-05T10:30:56;6.30;;;3.27;;
6033;SDS011;3045;43.226;27.858;2023-02-05T10:33:31;3.30;;;3.10;;
6033;SDS011;3045;43.226;27.858;2023-02-05T10:36:06;4.70;;;4.40;;
6033;SDS011;3045;43.226;27.858;2023-02-05T10:38:36;3.83;;;3.63;;
6033;SDS011;3045;43.226;27.858;2023-02-05T10:41:11;3.77;;;3.10;;
6033;SDS011;3045;43.226;27.858;2023-02-05T10:43:44;2.53;;;2.43;;
6033;SDS011;3045;43.226;27.858;2023-02-05T10:46:16;2.73;;;2.50;;
6033;SDS011;3045;43.226;27.858;2023-02-05T10:48:44;3.27;;;3.00;;
6033;SDS011;3045;43.226;27.858;2023-02-05T10:51:15;2.90;;;2.73;;
6033;SDS011;3045;43.226;27.858;2023-02-05T10:53:46;3.13;;;2.90;;
6033;SDS011;3045;43.226;27.858;2023-02-05T10:56:15;3.13;;;3.03;;
6033;SDS011;3045;43.226;27.858;2023-02-05T10:58:44;2.57;;;2.47;;
6033;SDS011;3045;43.226;27.858;2023-02-05T11:01:17;2.60;;;2.50;;
6033;SDS011;3045;43.226;27.858;2023-02-05T11:03:53;2.80;;;2.70;;
6033;SDS011;3045;43.226;27.858;2023-02-05T11:06:24;2.97;;;2.67;;
6033;SDS011;3045;43.226;27.858;2023-02-05T11:08:53;2.83;;;2.67;;
6033;SDS011;3045;43.226;27.858;2023-02-05T11:11:21;2.70;;;2.60;;
6033;SDS011;3045;43.226;27.858;2023-02-05T11:13:53;3.00;;;2.70;;
6033;SDS011;3045;43.226;27.858;2023-02-05T11:16:24;3.80;;;3.60;;
6033;SDS011;3045;43.226;27.858;2023-02-05T11:19:01;3.10;;;3.00;;
6033;SDS011;3045;43.226;27.858;2023-02-05T11:21:46;3.00;;;2.90;;
6033;SDS011;3045;43.226;27.858;2023-02-05T11:24:21;5.60;;;3.20;;
6033;SDS011;3045;43.226;27.858;2023-02-05T11:29:52;3.70;;;3.60;;
6033;SDS011;3045;43.226;27.858;2023-02-05T11:32:21;3.17;;;3.03;;
6033;SDS011;3045;43.226;27.858;2023-02-05T11:35:06;3.13;;;3.03;;
6033;SDS011;3045;43.226;27.858;2023-02-05T11:37:38;3.20;;;3.10;;
6033;SDS011;3045;43.226;27.858;2023-02-05T11:40:07;3.50;;;3.30;;
6033;SDS011;3045;43.226;27.858;2023-02-05T11:42:46;3.17;;;3.07;;
6033;SDS011;3045;43.226;27.858;2023-02-05T11:45:18;3.23;;;3.13;;
6033;SDS011;3045;43.226;27.858;2023-02-05T11:47:48;4.00;;;3.57;;
6033;SDS011;3045;43.226;27.858;2023-02-05T11:50:17;3.90;;;3.50;;
6033;SDS011;3045;43.226;27.858;2023-02-05T11:52:48;3.33;;;3.23;;
6033;SDS011;3045;43.226;27.858;2023-02-05T11:55:22;3.63;;;3.33;;
6033;SDS011;3045;43.226;27.858;2023-02-05T11:57:56;3.57;;;3.40;;
6033;SDS011;3045;43.226;27.858;2023-02-05T12:00:24;3.47;;;3.27;;
6033;SDS011;3045;43.226;27.858;2023-02-05T12:03:02;2.93;;;2.83;;
6033;SDS011;3045;43.226;27.858;2023-02-05T12:05:32;3.07;;;2.93;;
6033;SDS011;3045;43.226;27.858;2023-02-05T12:08:05;3.80;;;3.60;;
6033;SDS011;3045;43.226;27.858;2023-02-05T12:10:39;3.27;;;3.17;;
6033;SDS011;3045;43.226;27.858;2023-02-05T12:13:14;3.53;;;3.23;;
6033;SDS011;3045;43.226;27.858;2023-02-05T12:15:51;3.97;;;3.60;;
6033;SDS011;3045;43.226;27.858;2023-02-05T12:18:30;2.80;;;2.70;;
6033;SDS011;3045;43.226;27.858;2023-02-05T12:21:12;2.83;;;2.73;;
6033;SDS011;3045;43.226;27.858;2023-02-05T12:23:58;3.70;;;3.43;;
6033;SDS011;3045;43.226;27.858;2023-02-05T12:26:36;2.70;;;2.60;;
6033;SDS011;3045;43.226;27.858;2023-02-05T12:32:10;3.17;;;3.07;;
6033;SDS011;3045;43.226;27.858;2023-02-05T12:34:55;2.53;;;2.43;;
6033;SDS011;3045;43.226;27.858;2023-02-05T12:37:33;2.70;;;2.60;;
6033;SDS011;3045;43.226;27.858;2023-02-05T12:40:11;2.70;;;2.60;;
6033;SDS011;3045;43.226;27.858;2023-02-05T12:42:48;2.67;;;2.40;;
6033;SDS011;3045;43.226;27.858;2023-02-05T12:45:29;3.77;;;2.80;;
6033;SDS011;3045;43.226;27.858;2023-02-05T12:48:11;3.10;;;2.80;;
6033;SDS011;3045;43.226;27.858;2023-02-05T12:50:55;3.30;;;3.00;;
6033;SDS011;3045;43.226;27.858;2023-02-05T12:53:37;3.93;;;2.70;;
6033;SDS011;3045;43.226;27.858;2023-02-05T12:56:23;3.10;;;3.00;;
6033;SDS011;3045;43.226;27.858;2023-02-05T12:59:02;2.87;;;2.73;;
6033;SDS011;3045;43.226;27.858;2023-02-05T13:01:37;3.50;;;3.30;;
6033;SDS011;3045;43.226;27.858;2023-02-05T13:04:12;3.23;;;3.03;;
6033;SDS011;3045;43.226;27.858;2023-02-05T13:06:50;2.80;;;2.60;;
6033;SDS011;3045;43.226;27.858;2023-02-05T13:09:21;2.93;;;2.83;;
6033;SDS011;3045;43.226;27.858;2023-02-05T13:11:55;3.30;;;3.10;;
6033;SDS011;3045;43.226;27.858;2023-02-05T13:14:30;3.40;;;3.20;;
6033;SDS011;3045;43.226;27.858;2023-02-05T13:17:04;3.00;;;2.87;;
6033;SDS011;3045;43.226;27.858;2023-02-05T13:19:37;5.37;;;2.80;;
6033;SDS011;3045;43.226;27.858;2023-02-05T13:22:10;3.30;;;3.10;;
6033;SDS011;3045;43.226;27.858;2023-02-05T13:25:00;3.30;;;3.00;;
6033;SDS011;3045;43.226;27.858;2023-02-05T13:27:48;3.03;;;2.93;;
6033;SDS011;3045;43.226;27.858;2023-02-05T13:30:38;2.30;;;2.20;;
6033;SDS011;3045;43.226;27.858;2023-02-05T13:33:09;3.67;;;3.33;;
6033;SDS011;3045;43.226;27.858;2023-02-05T13:35:38;3.30;;;3.20;;
6033;SDS011;3045;43.226;27.858;2023-02-05T13:38:17;4.23;;;3.93;;
6033;SDS011;3045;43.226;27.858;2023-02-05T13:41:11;3.10;;;2.90;;
6033;SDS011;3045;43.226;27.858;2023-02-05T13:49:56;2.43;;;2.23;;
6033;SDS011;3045;43.226;27.858;2023-02-05T13:55:43;2.57;;;2.47;;
6033;SDS011;3045;43.226;27.858;2023-02-05T13:58:28;3.10;;;3.00;;
6033;SDS011;3045;43.226;27.858;2023-02-05T14:01:00;2.70;;;2.60;;
6033;SDS011;3045;43.226;27.858;2023-02-05T14:03:32;3.37;;;3.07;;
6033;SDS011;3045;43.226;27.858;2023-02-05T14:06:16;3.40;;;3.23;;
6033;SDS011;3045;43.226;27.858;2023-02-05T14:08:46;2.90;;;2.70;;
6033;SDS011;3045;43.226;27.858;2023-02-05T14:11:16;3.07;;;2.90;;
6033;SDS011;3045;43.226;27.858;2023-02-05T14:16:44;3.80;;;3.50;;
6033;SDS011;3045;43.226;27.858;2023-02-05T14:19:14;3.40;;;3.30;;
6033;SDS011;3045;43.226;27.858;2023-02-05T14:21:56;3.73;;;3.60;;
6033;SDS011;3045;43.226;27.858;2023-02-05T14:24:27;3.80;;;3.60;;
6033;SDS011;3045;43.226;27.858;2023-02-05T14:33:04;3.77;;;3.47;;
6033;SDS011;3045;43.226;27.858;2023-02-05T14:35:57;4.37;;;4.17;;
6033;SDS011;3045;43.226;27.858;2023-02-05T14:38:49;5.23;;;4.20;;
6033;SDS011;3045;43.226;27.858;2023-02-05T14:41:22;4.40;;;4.10;;
6033;SDS011;3045;43.226;27.858;2023-02-05T14:43:53;4.60;;;4.20;;
6033;SDS011;3045;43.226;27.858;2023-02-05T14:46:27;4.23;;;4.03;;
6033;SDS011;3045;43.226;27.858;2023-02-05T14:48:56;3.80;;;3.60;;
6033;SDS011;3045;43.226;27.858;2023-02-05T14:51:26;4.27;;;4.07;;
6033;SDS011;3045;43.226;27.858;2023-02-05T14:53:58;3.87;;;3.67;;
6033;SDS011;3045;43.226;27.858;2023-02-05T14:56:28;4.07;;;3.87;;
6033;SDS011;3045;43.226;27.858;2023-02-05T14:59:00;3.83;;;3.63;;
6033;SDS011;3045;43.226;27.858;2023-02-05T15:01:43;3.60;;;3.40;;
6033;SDS011;3045;43.226;27.858;2023-02-05T15:04:22;3.60;;;3.40;;
6033;SDS011;3045;43.226;27.858;2023-02-05T15:06:56;3.20;;;3.00;;
6033;SDS011;3045;43.226;27.858;2023-02-05T15:09:32;4.10;;;3.90;;
6033;SDS011;3045;43.226;27.858;2023-02-05T15:12:16;4.13;;;3.90;;
6033;SDS011;3045;43.226;27.858;2023-02-05T15:14:56;2.80;;;2.60;;
6033;SDS011;3045;43.226;27.858;2023-02-05T15:17:38;3.67;;;3.47;;
6033;SDS011;3045;43.226;27.858;2023-02-05T15:20:18;4.00;;;3.80;;
6033;SDS011;3045;43.226;27.858;2023-02-05T15:22:49;4.47;;;4.17;;
6033;SDS011;3045;43.226;27.858;2023-02-05T15:25:26;4.00;;;3.80;;
6033;SDS011;3045;43.226;27.858;2023-02-05T15:27:58;4.30;;;4.10;;
6033;SDS011;3045;43.226;27.858;2023-02-05T15:30:30;4.53;;;4.23;;
6033;SDS011;3045;43.226;27.858;2023-02-05T15:33:07;4.07;;;3.87;;
6033;SDS011;3045;43.226;27.858;2023-02-05T15:35:41;4.07;;;3.63;;
6033;SDS011;3045;43.226;27.858;2023-02-05T15:38:18;4.10;;;3.90;;
6033;SDS011;3045;43.226;27.858;2023-02-05T15:40:52;3.67;;;3.47;;
6033;SDS011;3045;43.226;27.858;2023-02-05T15:43:19;4.57;;;4.17;;
6033;SDS011;3045;43.226;27.858;2023-02-05T15:45:48;3.90;;;3.60;;
6033;SDS011;3045;43.226;27.858;2023-02-05T15:48:20;4.50;;;4.10;;
6033;SDS011;3045;43.226;27.858;2023-02-05T15:50:50;3.80;;;3.60;;
6033;SDS011;3045;43.226;27.858;2023-02-05T15:53:29;3.83;;;3.63;;